sensor_id;sensor_type;location;lat;lon;timestamp;P1;durP1;ratioP1;P2;durP2;ratioP2
13847;SDS011;6994;49.752;6.094;2023-01-24T00:02:12;9.10;;;7.32;;
13847;SDS011;6994;49.752;6.094;2023-01-24T00:04:40;8.45;;;6.93;;
13847;SDS011;6994;49.752;6.094;2023-01-24T00:07:07;7.72;;;6.93;;
13847;SDS011;6994;49.752;6.094;2023-01-24T00:09:34;8.20;;;6.72;;
13847;SDS011;6994;49.752;6.094;2023-01-24T00:12:02;8.40;;;6.72;;
13847;SDS011;6994;49.752;6.094;2023-01-24T00:14:29;8.15;;;7.22;;
13847;SDS011;6994;49.752;6.094;2023-01-24T00:16:57;8.18;;;6.45;;
13847;SDS011;6994;49.752;6.094;2023-01-24T00:19:24;7.07;;;5.97;;
13847;SDS011;6994;49.752;6.094;2023-01-24T00:21:51;7.82;;;6.40;;
13847;SDS011;6994;49.752;6.094;2023-01-24T00:24:18;8.85;;;6.90;;
13847;SDS011;6994;49.752;6.094;2023-01-24T00:26:45;7.68;;;6.87;;
13847;SDS011;6994;49.752;6.094;2023-01-24T00:29:13;8.32;;;6.68;;
13847;SDS011;6994;49.752;6.094;2023-01-24T00:31:40;6.87;;;6.18;;
13847;SDS011;6994;49.752;6.094;2023-01-24T00:34:07;7.85;;;6.20;;
13847;SDS011;6994;49.752;6.094;2023-01-24T00:36:34;9.60;;;6.70;;
13847;SDS011;6994;49.752;6.094;2023-01-24T00:39:01;8.40;;;6.90;;
13847;SDS011;6994;49.752;6.094;2023-01-24T00:41:29;7.95;;;6.95;;
13847;SDS011;6994;49.752;6.094;2023-01-24T00:43:56;7.72;;;6.45;;
13847;SDS011;6994;49.752;6.094;2023-01-24T00:46:23;8.05;;;5.97;;
13847;SDS011;6994;49.752;6.094;2023-01-24T00:48:50;7.50;;;5.97;;
13847;SDS011;6994;49.752;6.094;2023-01-24T00:51:17;8.27;;;6.93;;
13847;SDS011;6994;49.752;6.094;2023-01-24T00:53:45;8.45;;;5.95;;
13847;SDS011;6994;49.752;6.094;2023-01-24T00:56:12;6.80;;;5.72;;
13847;SDS011;6994;49.752;6.094;2023-01-24T00:58:39;6.80;;;6.05;;
13847;SDS011;6994;49.752;6.094;2023-01-24T01:01:06;8.75;;;7.28;;
13847;SDS011;6994;49.752;6.094;2023-01-24T01:03:33;7.15;;;6.43;;
13847;SDS011;6994;49.752;6.094;2023-01-24T01:06:08;6.87;;;5.87;;
13847;SDS011;6994;49.752;6.094;2023-01-24T01:08:34;7.57;;;6.30;;
13847;SDS011;6994;49.752;6.094;2023-01-24T01:11:01;6.75;;;5.70;;
13847;SDS011;6994;49.752;6.094;2023-01-24T01:13:28;7.50;;;6.25;;
13847;SDS011;6994;49.752;6.094;2023-01-24T01:16:06;9.17;;;8.27;;
13847;SDS011;6994;49.752;6.094;2023-01-24T01:18:32;8.00;;;7.20;;
13847;SDS011;6994;49.752;6.094;2023-01-24T01:20:59;8.18;;;7.15;;
13847;SDS011;6994;49.752;6.094;2023-01-24T01:23:26;7.10;;;6.37;;
13847;SDS011;6994;49.752;6.094;2023-01-24T01:25:57;8.02;;;7.00;;
13847;SDS011;6994;49.752;6.094;2023-01-24T01:28:21;8.15;;;6.20;;
13847;SDS011;6994;49.752;6.094;2023-01-24T01:30:54;6.82;;;6.05;;
13847;SDS011;6994;49.752;6.094;2023-01-24T01:33:21;7.75;;;6.28;;
13847;SDS011;6994;49.752;6.094;2023-01-24T01:35:48;8.73;;;6.28;;
13847;SDS011;6994;49.752;6.094;2023-01-24T01:38:16;8.23;;;6.95;;
13847;SDS011;6994;49.752;6.094;2023-01-24T01:40:43;7.50;;;6.60;;
13847;SDS011;6994;49.752;6.094;2023-01-24T01:43:12;5.85;;;5.32;;
13847;SDS011;6994;49.752;6.094;2023-01-24T01:45:39;6.85;;;6.15;;
13847;SDS011;6994;49.752;6.094;2023-01-24T01:48:08;9.73;;;8.82;;
13847;SDS011;6994;49.752;6.094;2023-01-24T01:50:35;8.63;;;7.12;;
13847;SDS011;6994;49.752;6.094;2023-01-24T01:53:01;7.93;;;6.82;;
13847;SDS011;6994;49.752;6.094;2023-01-24T01:55:29;8.13;;;7.18;;
13847;SDS011;6994;49.752;6.094;2023-01-24T01:57:55;8.63;;;7.00;;
13847;SDS011;6994;49.752;6.094;2023-01-24T02:00:23;9.27;;;7.25;;
13847;SDS011;6994;49.752;6.094;2023-01-24T02:02:52;8.68;;;7.35;;
13847;SDS011;6994;49.752;6.094;2023-01-24T02:05:20;10.23;;;9.15;;
13847;SDS011;6994;49.752;6.094;2023-01-24T02:07:54;7.72;;;6.97;;
13847;SDS011;6994;49.752;6.094;2023-01-24T02:10:23;8.68;;;7.47;;
13847;SDS011;6994;49.752;6.094;2023-01-24T02:12:51;9.35;;;7.00;;
13847;SDS011;6994;49.752;6.094;2023-01-24T02:15:18;10.13;;;9.13;;
13847;SDS011;6994;49.752;6.094;2023-01-24T02:18:02;8.40;;;7.03;;
13847;SDS011;6994;49.752;6.094;2023-01-24T02:28:27;9.82;;;8.90;;
13847;SDS011;6994;49.752;6.094;2023-01-24T02:30:59;9.75;;;7.90;;
13847;SDS011;6994;49.752;6.094;2023-01-24T02:33:26;8.02;;;7.07;;
13847;SDS011;6994;49.752;6.094;2023-01-24T02:36:13;8.10;;;6.60;;
13847;SDS011;6994;49.752;6.094;2023-01-24T02:38:38;9.70;;;8.80;;
13847;SDS011;6994;49.752;6.094;2023-01-24T02:41:05;10.30;;;9.30;;
13847;SDS011;6994;49.752;6.094;2023-01-24T02:43:36;8.77;;;7.80;;
13847;SDS011;6994;49.752;6.094;2023-01-24T02:46:05;9.73;;;8.80;;
13847;SDS011;6994;49.752;6.094;2023-01-24T02:48:32;8.45;;;7.30;;
13847;SDS011;6994;49.752;6.094;2023-01-24T02:50:59;9.57;;;7.40;;
13847;SDS011;6994;49.752;6.094;2023-01-24T02:53:44;9.38;;;7.30;;
13847;SDS011;6994;49.752;6.094;2023-01-24T02:56:12;9.32;;;6.95;;
13847;SDS011;6994;49.752;6.094;2023-01-24T02:58:57;9.90;;;8.90;;
13847;SDS011;6994;49.752;6.094;2023-01-24T03:01:24;9.05;;;8.15;;
13847;SDS011;6994;49.752;6.094;2023-01-24T03:03:51;9.40;;;8.15;;
13847;SDS011;6994;49.752;6.094;2023-01-24T03:06:18;9.48;;;8.48;;
13847;SDS011;6994;49.752;6.094;2023-01-24T03:08:46;8.80;;;7.47;;
13847;SDS011;6994;49.752;6.094;2023-01-24T03:11:13;8.30;;;7.37;;
13847;SDS011;6994;49.752;6.094;2023-01-24T03:13:40;8.70;;;6.93;;
13847;SDS011;6994;49.752;6.094;2023-01-24T03:16:25;8.55;;;7.22;;
13847;SDS011;6994;49.752;6.094;2023-01-24T03:19:11;10.83;;;9.60;;
13847;SDS011;6994;49.752;6.094;2023-01-24T03:21:56;9.27;;;7.50;;
13847;SDS011;6994;49.752;6.094;2023-01-24T03:24:41;9.63;;;8.48;;
13847;SDS011;6994;49.752;6.094;2023-01-24T03:27:26;10.63;;;9.63;;
13847;SDS011;6994;49.752;6.094;2023-01-24T03:30:12;9.60;;;8.00;;
13847;SDS011;6994;49.752;6.094;2023-01-24T03:33:00;8.23;;;7.05;;
13847;SDS011;6994;49.752;6.094;2023-01-24T03:35:47;9.60;;;7.87;;
13847;SDS011;6994;49.752;6.094;2023-01-24T03:38:12;8.63;;;7.45;;
13847;SDS011;6994;49.752;6.094;2023-01-24T03:40:58;9.25;;;7.30;;
13847;SDS011;6994;49.752;6.094;2023-01-24T03:43:26;8.02;;;6.82;;
13847;SDS011;6994;49.752;6.094;2023-01-24T03:45:54;9.43;;;7.68;;
13847;SDS011;6994;49.752;6.094;2023-01-24T03:48:22;9.80;;;7.68;;
13847;SDS011;6994;49.752;6.094;2023-01-24T03:50:51;11.00;;;7.05;;
13847;SDS011;6994;49.752;6.094;2023-01-24T03:53:35;9.35;;;8.02;;
13847;SDS011;6994;49.752;6.094;2023-01-24T03:56:03;11.43;;;10.25;;
13847;SDS011;6994;49.752;6.094;2023-01-24T03:58:30;8.32;;;7.40;;
13847;SDS011;6994;49.752;6.094;2023-01-24T04:00:57;10.27;;;7.80;;
13847;SDS011;6994;49.752;6.094;2023-01-24T04:03:24;9.63;;;8.63;;
13847;SDS011;6994;49.752;6.094;2023-01-24T04:05:51;11.12;;;10.02;;
13847;SDS011;6994;49.752;6.094;2023-01-24T04:08:19;8.77;;;7.87;;
13847;SDS011;6994;49.752;6.094;2023-01-24T04:10:46;8.65;;;7.57;;
13847;SDS011;6994;49.752;6.094;2023-01-24T04:13:13;8.15;;;7.35;;
13847;SDS011;6994;49.752;6.094;2023-01-24T04:15:40;9.10;;;7.20;;
13847;SDS011;6994;49.752;6.094;2023-01-24T04:18:07;8.55;;;7.32;;
13847;SDS011;6994;49.752;6.094;2023-01-24T04:20:35;8.95;;;6.78;;
13847;SDS011;6994;49.752;6.094;2023-01-24T04:23:03;9.23;;;7.53;;
13847;SDS011;6994;49.752;6.094;2023-01-24T04:25:29;8.30;;;6.75;;
13847;SDS011;6994;49.752;6.094;2023-01-24T04:27:56;7.47;;;6.47;;
13847;SDS011;6994;49.752;6.094;2023-01-24T04:30:24;7.40;;;6.22;;
13847;SDS011;6994;49.752;6.094;2023-01-24T04:32:51;11.50;;;6.82;;
13847;SDS011;6994;49.752;6.094;2023-01-24T04:35:22;9.38;;;8.13;;
13847;SDS011;6994;49.752;6.094;2023-01-24T04:37:48;9.50;;;7.18;;
13847;SDS011;6994;49.752;6.094;2023-01-24T04:40:15;9.05;;;6.93;;
13847;SDS011;6994;49.752;6.094;2023-01-24T04:42:42;8.55;;;7.40;;
13847;SDS011;6994;49.752;6.094;2023-01-24T04:45:09;10.45;;;9.35;;
13847;SDS011;6994;49.752;6.094;2023-01-24T04:47:36;9.02;;;7.90;;
13847;SDS011;6994;49.752;6.094;2023-01-24T04:50:04;10.02;;;8.20;;
13847;SDS011;6994;49.752;6.094;2023-01-24T04:52:31;9.15;;;7.57;;
13847;SDS011;6994;49.752;6.094;2023-01-24T04:54:58;10.48;;;8.18;;
13847;SDS011;6994;49.752;6.094;2023-01-24T04:57:25;9.98;;;8.18;;
13847;SDS011;6994;49.752;6.094;2023-01-24T04:59:52;10.88;;;9.77;;
13847;SDS011;6994;49.752;6.094;2023-01-24T05:02:20;10.07;;;8.95;;
13847;SDS011;6994;49.752;6.094;2023-01-24T05:04:47;10.40;;;9.40;;
13847;SDS011;6994;49.752;6.094;2023-01-24T05:07:14;8.95;;;7.65;;
13847;SDS011;6994;49.752;6.094;2023-01-24T05:09:41;8.55;;;7.15;;
13847;SDS011;6994;49.752;6.094;2023-01-24T05:12:08;7.53;;;6.80;;
13847;SDS011;6994;49.752;6.094;2023-01-24T05:14:36;8.18;;;6.05;;
13847;SDS011;6994;49.752;6.094;2023-01-24T05:17:03;7.97;;;6.95;;
13847;SDS011;6994;49.752;6.094;2023-01-24T05:19:30;8.82;;;6.90;;
13847;SDS011;6994;49.752;6.094;2023-01-24T05:21:57;10.23;;;9.18;;
13847;SDS011;6994;49.752;6.094;2023-01-24T05:24:24;10.00;;;7.80;;
13847;SDS011;6994;49.752;6.094;2023-01-24T05:26:52;9.52;;;7.45;;
13847;SDS011;6994;49.752;6.094;2023-01-24T05:29:19;9.43;;;7.37;;
13847;SDS011;6994;49.752;6.094;2023-01-24T05:31:46;10.05;;;9.00;;
13847;SDS011;6994;49.752;6.094;2023-01-24T05:34:13;8.00;;;7.20;;
13847;SDS011;6994;49.752;6.094;2023-01-24T05:36:40;8.45;;;7.60;;
13847;SDS011;6994;49.752;6.094;2023-01-24T05:39:08;8.02;;;7.22;;
13847;SDS011;6994;49.752;6.094;2023-01-24T05:41:35;8.68;;;7.40;;
13847;SDS011;6994;49.752;6.094;2023-01-24T05:44:02;9.05;;;7.22;;
13847;SDS011;6994;49.752;6.094;2023-01-24T05:46:29;4.85;;;4.37;;
13847;SDS011;6994;49.752;6.094;2023-01-24T05:48:56;7.07;;;5.97;;
13847;SDS011;6994;49.752;6.094;2023-01-24T05:51:24;8.35;;;6.53;;
13847;SDS011;6994;49.752;6.094;2023-01-24T05:53:51;8.13;;;7.22;;
13847;SDS011;6994;49.752;6.094;2023-01-24T05:56:18;7.87;;;7.07;;
13847;SDS011;6994;49.752;6.094;2023-01-24T05:58:46;8.00;;;7.07;;
13847;SDS011;6994;49.752;6.094;2023-01-24T06:01:13;9.63;;;8.63;;
13847;SDS011;6994;49.752;6.094;2023-01-24T06:03:40;8.23;;;7.10;;
13847;SDS011;6994;49.752;6.094;2023-01-24T06:06:08;8.23;;;7.43;;
13847;SDS011;6994;49.752;6.094;2023-01-24T06:08:34;8.13;;;6.70;;
13847;SDS011;6994;49.752;6.094;2023-01-24T06:11:04;7.32;;;6.55;;
13847;SDS011;6994;49.752;6.094;2023-01-24T06:13:28;9.27;;;7.87;;
13847;SDS011;6994;49.752;6.094;2023-01-24T06:16:03;7.72;;;6.72;;
13847;SDS011;6994;49.752;6.094;2023-01-24T06:18:32;8.38;;;7.35;;
13847;SDS011;6994;49.752;6.094;2023-01-24T06:21:04;8.55;;;7.72;;
13847;SDS011;6994;49.752;6.094;2023-01-24T06:23:32;8.98;;;7.10;;
13847;SDS011;6994;49.752;6.094;2023-01-24T06:25:59;9.82;;;8.13;;
13847;SDS011;6994;49.752;6.094;2023-01-24T06:28:27;9.20;;;8.30;;
13847;SDS011;6994;49.752;6.094;2023-01-24T06:30:59;8.07;;;6.85;;
13847;SDS011;6994;49.752;6.094;2023-01-24T06:33:33;7.22;;;5.78;;
13847;SDS011;6994;49.752;6.094;2023-01-24T06:38:55;6.45;;;5.85;;
13847;SDS011;6994;49.752;6.094;2023-01-24T06:41:22;6.35;;;5.75;;
13847;SDS011;6994;49.752;6.094;2023-01-24T06:43:49;7.43;;;5.90;;
13847;SDS011;6994;49.752;6.094;2023-01-24T06:46:16;7.30;;;5.87;;
13847;SDS011;6994;49.752;6.094;2023-01-24T06:48:44;7.47;;;6.25;;
13847;SDS011;6994;49.752;6.094;2023-01-24T06:51:11;6.05;;;5.40;;
13847;SDS011;6994;49.752;6.094;2023-01-24T06:53:39;6.53;;;5.90;;
13847;SDS011;6994;49.752;6.094;2023-01-24T06:56:06;6.90;;;6.00;;
13847;SDS011;6994;49.752;6.094;2023-01-24T06:58:33;7.97;;;6.47;;
13847;SDS011;6994;49.752;6.094;2023-01-24T07:01:01;7.32;;;5.82;;
13847;SDS011;6994;49.752;6.094;2023-01-24T07:03:29;7.53;;;6.00;;
13847;SDS011;6994;49.752;6.094;2023-01-24T07:05:57;7.62;;;5.78;;
13847;SDS011;6994;49.752;6.094;2023-01-24T07:08:24;7.22;;;5.85;;
13847;SDS011;6994;49.752;6.094;2023-01-24T07:10:51;6.07;;;5.03;;
13847;SDS011;6994;49.752;6.094;2023-01-24T07:13:19;6.40;;;5.28;;
13847;SDS011;6994;49.752;6.094;2023-01-24T07:15:46;5.95;;;5.35;;
13847;SDS011;6994;49.752;6.094;2023-01-24T07:18:13;6.43;;;5.40;;
13847;SDS011;6994;49.752;6.094;2023-01-24T07:20:40;5.47;;;4.87;;
13847;SDS011;6994;49.752;6.094;2023-01-24T07:23:30;7.30;;;5.97;;
13847;SDS011;6994;49.752;6.094;2023-01-24T07:25:52;6.07;;;5.47;;
13847;SDS011;6994;49.752;6.094;2023-01-24T07:28:20;8.48;;;5.62;;
13847;SDS011;6994;49.752;6.094;2023-01-24T07:30:47;5.72;;;5.22;;
13847;SDS011;6994;49.752;6.094;2023-01-24T07:33:14;6.75;;;5.93;;
13847;SDS011;6994;49.752;6.094;2023-01-24T07:35:42;6.50;;;5.53;;
13847;SDS011;6994;49.752;6.094;2023-01-24T07:38:09;8.07;;;6.57;;
13847;SDS011;6994;49.752;6.094;2023-01-24T07:40:37;10.63;;;6.43;;
13847;SDS011;6994;49.752;6.094;2023-01-24T07:43:05;6.93;;;6.12;;
13847;SDS011;6994;49.752;6.094;2023-01-24T07:45:32;6.85;;;5.93;;
13847;SDS011;6994;49.752;6.094;2023-01-24T07:47:59;7.10;;;5.75;;
13847;SDS011;6994;49.752;6.094;2023-01-24T07:50:27;6.43;;;5.40;;
13847;SDS011;6994;49.752;6.094;2023-01-24T07:52:55;6.72;;;5.57;;
13847;SDS011;6994;49.752;6.094;2023-01-24T07:55:22;6.40;;;5.57;;
13847;SDS011;6994;49.752;6.094;2023-01-24T07:57:49;6.47;;;4.90;;
13847;SDS011;6994;49.752;6.094;2023-01-24T08:00:17;6.00;;;4.50;;
13847;SDS011;6994;49.752;6.094;2023-01-24T08:02:45;6.20;;;5.43;;
13847;SDS011;6994;49.752;6.094;2023-01-24T08:05:12;5.97;;;5.35;;
13847;SDS011;6994;49.752;6.094;2023-01-24T08:07:39;9.82;;;5.65;;
13847;SDS011;6994;49.752;6.094;2023-01-24T08:10:06;7.05;;;6.20;;
13847;SDS011;6994;49.752;6.094;2023-01-24T08:12:34;8.50;;;6.90;;
13847;SDS011;6994;49.752;6.094;2023-01-24T08:15:01;7.53;;;6.18;;
13847;SDS011;6994;49.752;6.094;2023-01-24T08:17:28;6.32;;;4.97;;
13847;SDS011;6994;49.752;6.094;2023-01-24T08:19:55;7.28;;;5.40;;
13847;SDS011;6994;49.752;6.094;2023-01-24T08:22:23;6.55;;;5.60;;
13847;SDS011;6994;49.752;6.094;2023-01-24T08:24:50;7.03;;;5.60;;
13847;SDS011;6994;49.752;6.094;2023-01-24T08:27:17;6.12;;;4.62;;
13847;SDS011;6994;49.752;6.094;2023-01-24T08:29:44;6.78;;;5.37;;
13847;SDS011;6994;49.752;6.094;2023-01-24T08:32:11;7.37;;;5.43;;
13847;SDS011;6994;49.752;6.094;2023-01-24T08:34:38;6.47;;;5.75;;
13847;SDS011;6994;49.752;6.094;2023-01-24T08:37:06;6.65;;;5.18;;
13847;SDS011;6994;49.752;6.094;2023-01-24T08:39:33;7.05;;;4.65;;
13847;SDS011;6994;49.752;6.094;2023-01-24T08:42:00;6.00;;;4.65;;
13847;SDS011;6994;49.752;6.094;2023-01-24T08:44:27;6.62;;;5.93;;
13847;SDS011;6994;49.752;6.094;2023-01-24T08:46:54;7.50;;;5.90;;
13847;SDS011;6994;49.752;6.094;2023-01-24T08:49:22;6.57;;;5.57;;
13847;SDS011;6994;49.752;6.094;2023-01-24T08:51:49;6.25;;;5.37;;
13847;SDS011;6994;49.752;6.094;2023-01-24T08:54:16;6.35;;;5.40;;
13847;SDS011;6994;49.752;6.094;2023-01-24T08:56:43;7.30;;;5.70;;
13847;SDS011;6994;49.752;6.094;2023-01-24T08:59:10;7.00;;;5.60;;
13847;SDS011;6994;49.752;6.094;2023-01-24T09:01:38;6.70;;;5.80;;
13847;SDS011;6994;49.752;6.094;2023-01-24T09:04:05;7.60;;;5.95;;
13847;SDS011;6994;49.752;6.094;2023-01-24T09:06:32;6.62;;;5.50;;
13847;SDS011;6994;49.752;6.094;2023-01-24T09:08:59;6.25;;;5.65;;
13847;SDS011;6994;49.752;6.094;2023-01-24T09:11:26;7.07;;;6.37;;
13847;SDS011;6994;49.752;6.094;2023-01-24T09:13:54;8.55;;;6.55;;
13847;SDS011;6994;49.752;6.094;2023-01-24T09:16:21;8.43;;;5.40;;
13847;SDS011;6994;49.752;6.094;2023-01-24T09:18:48;8.38;;;5.43;;
13847;SDS011;6994;49.752;6.094;2023-01-24T09:21:18;6.82;;;5.95;;
13847;SDS011;6994;49.752;6.094;2023-01-24T09:23:45;7.80;;;6.37;;
13847;SDS011;6994;49.752;6.094;2023-01-24T09:26:12;8.15;;;5.72;;
13847;SDS011;6994;49.752;6.094;2023-01-24T09:28:40;7.32;;;6.05;;
13847;SDS011;6994;49.752;6.094;2023-01-24T09:31:08;7.97;;;6.50;;
13847;SDS011;6994;49.752;6.094;2023-01-24T09:33:36;10.50;;;7.15;;
13847;SDS011;6994;49.752;6.094;2023-01-24T09:36:03;7.20;;;5.97;;
13847;SDS011;6994;49.752;6.094;2023-01-24T09:38:31;8.20;;;6.28;;
13847;SDS011;6994;49.752;6.094;2023-01-24T09:41:03;7.80;;;7.00;;
13847;SDS011;6994;49.752;6.094;2023-01-24T09:43:41;15.55;;;7.35;;
13847;SDS011;6994;49.752;6.094;2023-01-24T09:46:26;9.50;;;8.50;;
13847;SDS011;6994;49.752;6.094;2023-01-24T09:51:35;8.35;;;6.68;;
13847;SDS011;6994;49.752;6.094;2023-01-24T09:54:02;7.97;;;6.10;;
13847;SDS011;6994;49.752;6.094;2023-01-24T09:56:30;7.07;;;5.65;;
13847;SDS011;6994;49.752;6.094;2023-01-24T10:01:48;7.60;;;6.15;;
13847;SDS011;6994;49.752;6.094;2023-01-24T10:12:42;7.82;;;6.28;;
13847;SDS011;6994;49.752;6.094;2023-01-24T10:15:09;8.43;;;6.57;;
13847;SDS011;6994;49.752;6.094;2023-01-24T10:20:30;8.10;;;6.25;;
13847;SDS011;6994;49.752;6.094;2023-01-24T10:25:55;7.07;;;6.12;;
13847;SDS011;6994;49.752;6.094;2023-01-24T10:28:23;8.00;;;7.20;;
13847;SDS011;6994;49.752;6.094;2023-01-24T10:33:24;7.97;;;7.12;;
13847;SDS011;6994;49.752;6.094;2023-01-24T10:38:23;10.73;;;6.68;;
13847;SDS011;6994;49.752;6.094;2023-01-24T10:40:58;7.93;;;7.05;;
13847;SDS011;6994;49.752;6.094;2023-01-24T10:43:24;7.60;;;6.70;;
13847;SDS011;6994;49.752;6.094;2023-01-24T10:48:42;11.43;;;6.37;;
13847;SDS011;6994;49.752;6.094;2023-01-24T10:51:16;9.25;;;8.10;;
13847;SDS011;6994;49.752;6.094;2023-01-24T10:53:43;7.20;;;6.22;;
13847;SDS011;6994;49.752;6.094;2023-01-24T10:56:10;7.30;;;6.55;;
13847;SDS011;6994;49.752;6.094;2023-01-24T10:58:39;7.93;;;6.85;;
13847;SDS011;6994;49.752;6.094;2023-01-24T11:01:23;9.10;;;7.10;;
13847;SDS011;6994;49.752;6.094;2023-01-24T11:03:47;7.70;;;6.62;;
13847;SDS011;6994;49.752;6.094;2023-01-24T11:09:04;12.25;;;8.18;;
13847;SDS011;6994;49.752;6.094;2023-01-24T11:11:45;8.70;;;6.95;;
13847;SDS011;6994;49.752;6.094;2023-01-24T11:14:13;7.80;;;6.62;;
13847;SDS011;6994;49.752;6.094;2023-01-24T11:16:44;8.80;;;7.47;;
13847;SDS011;6994;49.752;6.094;2023-01-24T11:19:21;9.05;;;8.07;;
13847;SDS011;6994;49.752;6.094;2023-01-24T11:22:00;8.15;;;7.35;;
13847;SDS011;6994;49.752;6.094;2023-01-24T11:24:27;7.40;;;6.28;;
13847;SDS011;6994;49.752;6.094;2023-01-24T11:27:56;8.93;;;6.72;;
13847;SDS011;6994;49.752;6.094;2023-01-24T11:29:30;8.27;;;7.15;;
13847;SDS011;6994;49.752;6.094;2023-01-24T11:31:58;7.03;;;5.80;;
13847;SDS011;6994;49.752;6.094;2023-01-24T11:34:32;9.50;;;6.22;;
13847;SDS011;6994;49.752;6.094;2023-01-24T11:40:05;9.68;;;7.28;;
13847;SDS011;6994;49.752;6.094;2023-01-24T11:47:36;8.85;;;7.15;;
13847;SDS011;6994;49.752;6.094;2023-01-24T11:52:55;9.18;;;7.12;;
13847;SDS011;6994;49.752;6.094;2023-01-24T11:55:39;9.10;;;6.78;;
13847;SDS011;6994;49.752;6.094;2023-01-24T12:06:14;8.85;;;7.95;;
13847;SDS011;6994;49.752;6.094;2023-01-24T12:08:54;8.55;;;6.78;;
13847;SDS011;6994;49.752;6.094;2023-01-24T12:11:26;10.20;;;7.22;;
13847;SDS011;6994;49.752;6.094;2023-01-24T12:19:23;9.10;;;8.20;;
13847;SDS011;6994;49.752;6.094;2023-01-24T12:22:06;9.20;;;7.87;;
13847;SDS011;6994;49.752;6.094;2023-01-24T12:24:31;7.90;;;6.57;;
13847;SDS011;6994;49.752;6.094;2023-01-24T12:26:59;8.57;;;6.55;;
13847;SDS011;6994;49.752;6.094;2023-01-24T12:29:33;9.50;;;6.70;;
13847;SDS011;6994;49.752;6.094;2023-01-24T12:32:08;7.05;;;6.30;;
13847;SDS011;6994;49.752;6.094;2023-01-24T12:34:37;11.00;;;7.03;;
13847;SDS011;6994;49.752;6.094;2023-01-24T12:40:20;7.65;;;6.62;;
13847;SDS011;6994;49.752;6.094;2023-01-24T12:42:54;9.70;;;7.60;;
13847;SDS011;6994;49.752;6.094;2023-01-24T12:48:05;8.43;;;6.37;;
13847;SDS011;6994;49.752;6.094;2023-01-24T12:50:36;8.32;;;6.90;;
13847;SDS011;6994;49.752;6.094;2023-01-24T12:56:03;9.05;;;7.20;;
13847;SDS011;6994;49.752;6.094;2023-01-24T12:58:32;10.02;;;7.50;;
13847;SDS011;6994;49.752;6.094;2023-01-24T13:09:02;9.98;;;7.37;;
13847;SDS011;6994;49.752;6.094;2023-01-24T13:11:27;11.12;;;7.95;;
13847;SDS011;6994;49.752;6.094;2023-01-24T13:14:03;10.68;;;7.85;;
13847;SDS011;6994;49.752;6.094;2023-01-24T13:19:06;11.52;;;8.95;;
13847;SDS011;6994;49.752;6.094;2023-01-24T13:21:37;10.43;;;7.93;;
13847;SDS011;6994;49.752;6.094;2023-01-24T13:26:51;9.73;;;8.63;;
13847;SDS011;6994;49.752;6.094;2023-01-24T13:29:41;10.30;;;8.10;;
13847;SDS011;6994;49.752;6.094;2023-01-24T13:32:15;7.50;;;6.07;;
13847;SDS011;6994;49.752;6.094;2023-01-24T13:34:44;7.55;;;6.05;;
13847;SDS011;6994;49.752;6.094;2023-01-24T13:37:19;8.70;;;6.65;;
13847;SDS011;6994;49.752;6.094;2023-01-24T13:40:18;7.68;;;5.90;;
13847;SDS011;6994;49.752;6.094;2023-01-24T13:42:33;9.18;;;6.43;;
13847;SDS011;6994;49.752;6.094;2023-01-24T13:44:59;8.35;;;6.65;;
13847;SDS011;6994;49.752;6.094;2023-01-24T13:47:32;9.85;;;8.55;;
13847;SDS011;6994;49.752;6.094;2023-01-24T13:55:04;10.48;;;7.95;;
13847;SDS011;6994;49.752;6.094;2023-01-24T13:57:33;12.27;;;8.00;;
13847;SDS011;6994;49.752;6.094;2023-01-24T14:02:38;9.90;;;7.28;;
13847;SDS011;6994;49.752;6.094;2023-01-24T14:05:17;7.25;;;5.43;;
13847;SDS011;6994;49.752;6.094;2023-01-24T14:07:35;9.57;;;8.07;;
13847;SDS011;6994;49.752;6.094;2023-01-24T14:10:02;8.38;;;6.10;;
13847;SDS011;6994;49.752;6.094;2023-01-24T14:12:25;12.60;;;7.57;;
13847;SDS011;6994;49.752;6.094;2023-01-24T14:14:59;10.57;;;6.93;;
13847;SDS011;6994;49.752;6.094;2023-01-24T14:17:26;9.68;;;6.45;;
13847;SDS011;6994;49.752;6.094;2023-01-24T14:19:53;9.30;;;6.12;;
13847;SDS011;6994;49.752;6.094;2023-01-24T14:22:23;10.10;;;8.60;;
13847;SDS011;6994;49.752;6.094;2023-01-24T14:27:24;10.07;;;6.45;;
13847;SDS011;6994;49.752;6.094;2023-01-24T14:29:51;8.63;;;6.03;;
13847;SDS011;6994;49.752;6.094;2023-01-24T14:32:19;8.88;;;6.10;;
13847;SDS011;6994;49.752;6.094;2023-01-24T14:34:45;9.70;;;5.60;;
13847;SDS011;6994;49.752;6.094;2023-01-24T14:37:12;8.88;;;5.78;;
13847;SDS011;6994;49.752;6.094;2023-01-24T14:39:39;7.00;;;5.60;;
13847;SDS011;6994;49.752;6.094;2023-01-24T14:42:10;8.05;;;5.37;;
13847;SDS011;6994;49.752;6.094;2023-01-24T14:47:23;6.90;;;5.47;;
13847;SDS011;6994;49.752;6.094;2023-01-24T14:49:50;8.13;;;6.18;;
13847;SDS011;6994;49.752;6.094;2023-01-24T14:52:22;9.15;;;5.62;;
13847;SDS011;6994;49.752;6.094;2023-01-24T14:54:53;7.37;;;5.97;;
13847;SDS011;6994;49.752;6.094;2023-01-24T14:57:29;8.15;;;6.00;;
13847;SDS011;6994;49.752;6.094;2023-01-24T15:02:39;6.60;;;5.07;;
13847;SDS011;6994;49.752;6.094;2023-01-24T15:05:20;7.18;;;5.62;;
13847;SDS011;6994;49.752;6.094;2023-01-24T15:07:45;6.45;;;5.20;;
13847;SDS011;6994;49.752;6.094;2023-01-24T15:10:13;8.75;;;6.22;;
13847;SDS011;6994;49.752;6.094;2023-01-24T15:12:40;7.37;;;5.40;;
13847;SDS011;6994;49.752;6.094;2023-01-24T15:15:11;6.47;;;5.35;;
13847;SDS011;6994;49.752;6.094;2023-01-24T15:17:34;7.72;;;5.15;;
13847;SDS011;6994;49.752;6.094;2023-01-24T15:20:08;6.47;;;5.07;;
13847;SDS011;6994;49.752;6.094;2023-01-24T15:22:36;7.20;;;4.90;;
13847;SDS011;6994;49.752;6.094;2023-01-24T15:25:14;7.55;;;5.43;;
13847;SDS011;6994;49.752;6.094;2023-01-24T15:27:39;6.30;;;4.50;;
13847;SDS011;6994;49.752;6.094;2023-01-24T15:30:09;8.95;;;5.50;;
13847;SDS011;6994;49.752;6.094;2023-01-24T15:32:40;8.70;;;5.90;;
13847;SDS011;6994;49.752;6.094;2023-01-24T15:40:35;6.95;;;5.57;;
13847;SDS011;6994;49.752;6.094;2023-01-24T15:43:01;8.85;;;5.87;;
13847;SDS011;6994;49.752;6.094;2023-01-24T15:45:53;6.20;;;4.70;;
13847;SDS011;6994;49.752;6.094;2023-01-24T15:48:20;5.50;;;4.43;;
13847;SDS011;6994;49.752;6.094;2023-01-24T15:50:54;8.38;;;6.15;;
13847;SDS011;6994;49.752;6.094;2023-01-24T15:53:33;9.35;;;5.97;;
13847;SDS011;6994;49.752;6.094;2023-01-24T15:56:01;8.13;;;6.07;;
13847;SDS011;6994;49.752;6.094;2023-01-24T15:58:27;6.62;;;5.15;;
13847;SDS011;6994;49.752;6.094;2023-01-24T16:00:55;7.70;;;5.15;;
13847;SDS011;6994;49.752;6.094;2023-01-24T16:03:21;5.43;;;3.80;;
13847;SDS011;6994;49.752;6.094;2023-01-24T16:05:49;6.60;;;4.75;;
13847;SDS011;6994;49.752;6.094;2023-01-24T16:08:16;5.82;;;4.50;;
13847;SDS011;6994;49.752;6.094;2023-01-24T16:10:44;7.05;;;4.85;;
13847;SDS011;6994;49.752;6.094;2023-01-24T16:13:21;7.07;;;4.82;;
13847;SDS011;6994;49.752;6.094;2023-01-24T16:15:43;6.37;;;5.35;;
13847;SDS011;6994;49.752;6.094;2023-01-24T16:18:11;8.30;;;5.62;;
13847;SDS011;6994;49.752;6.094;2023-01-24T16:20:38;10.18;;;6.78;;
13847;SDS011;6994;49.752;6.094;2023-01-24T16:23:05;6.82;;;5.00;;
13847;SDS011;6994;49.752;6.094;2023-01-24T16:25:34;8.32;;;5.90;;
13847;SDS011;6994;49.752;6.094;2023-01-24T16:28:01;7.12;;;4.90;;
13847;SDS011;6994;49.752;6.094;2023-01-24T16:30:29;10.15;;;5.65;;
13847;SDS011;6994;49.752;6.094;2023-01-24T16:32:57;9.02;;;6.20;;
13847;SDS011;6994;49.752;6.094;2023-01-24T16:35:24;8.57;;;6.72;;
13847;SDS011;6994;49.752;6.094;2023-01-24T16:37:51;10.20;;;6.15;;
13847;SDS011;6994;49.752;6.094;2023-01-24T16:40:19;6.50;;;5.57;;
13847;SDS011;6994;49.752;6.094;2023-01-24T16:42:46;10.07;;;6.50;;
13847;SDS011;6994;49.752;6.094;2023-01-24T16:45:14;9.45;;;8.10;;
13847;SDS011;6994;49.752;6.094;2023-01-24T16:47:40;9.20;;;7.03;;
13847;SDS011;6994;49.752;6.094;2023-01-24T16:50:08;10.57;;;7.10;;
13847;SDS011;6994;49.752;6.094;2023-01-24T16:52:36;10.07;;;7.25;;
13847;SDS011;6994;49.752;6.094;2023-01-24T16:55:04;12.45;;;8.70;;
13847;SDS011;6994;49.752;6.094;2023-01-24T16:57:31;9.35;;;7.40;;
13847;SDS011;6994;49.752;6.094;2023-01-24T16:59:59;11.07;;;8.77;;
13847;SDS011;6994;49.752;6.094;2023-01-24T17:02:27;8.13;;;5.80;;